Terminal Aerodrome Forecast
Issued by NWS

Home | Current Version | Previous Version | Text Only | Print | Product List | Glossary On
Versions: 1 2 3 4 5 6 7 8 9 10 11 12
000
FTUS43 KFGF 050520
TAFDVL
TAF
KDVL 050520Z 0506/0606 12010KT P6SM BKN250
     FM051500 13014KT P6SM BKN100
     FM051800 13014KT P6SM VCTS BKN050CB
     FM060000 15005KT P6SM BKN080
      AMD LTD TO CLD VIS AND WIND=

USA.gov is the U.S. government's official web portal to all federal, state and local government web resources and services.